Time;durP1;ratioP1;P1;durP2;ratioP2;P2;SDS_P1;SDS_P2;PMS_P1;PMS_P2;Temp;Humidity;BMP_temperature;BMP_pressure;BME280_temperature;BME280_humidity;BME280_pressure;Samples;Min_cycle;Max_cycle;Signal;HPM_P1;HPM_P2
2022/03/12 01:19:49;;;;;;;15.68;8.20;;;;;;;;;;4748418;30;20056;-81
2022/03/12 01:22:38;;;;;;;15.35;8.02;;;;;;;;;;4743097;30;20059;-83
2022/03/12 01:25:24;;;;;;;18.08;8.85;;;;;;;;;;4755891;30;20048;-83
2022/03/12 01:28:11;;;;;;;19.92;10.27;;;;;;;;;;4753160;30;20056;-83
2022/03/12 01:30:58;;;;;;;17.83;9.73;;;;;;;;;;4773399;30;20395;-83
2022/03/12 01:33:44;;;;;;;17.75;9.38;;;;;;;;;;4772455;30;20048;-80
2022/03/12 01:36:29;;;;;;;18.33;9.45;;;;;;;;;;4772601;30;20048;-80
2022/03/12 01:39:14;;;;;;;18.30;9.85;;;;;;;;;;4772809;30;20064;-82
2022/03/12 01:42:00;;;;;;;18.50;9.07;;;;;;;;;;4772398;30;20403;-80
2022/03/12 01:44:46;;;;;;;20.02;9.25;;;;;;;;;;4772898;30;20056;-82
2022/03/12 01:47:30;;;;;;;19.08;8.77;;;;;;;;;;4772481;30;20055;-82
2022/03/12 01:50:19;;;;;;;19.17;9.57;;;;;;;;;;4772394;30;20063;-81
2022/03/12 01:53:10;;;;;;;19.15;9.15;;;;;;;;;;4772336;30;20483;-83
2022/03/12 01:55:55;;;;;;;17.00;8.77;;;;;;;;;;4772194;30;20047;-80
2022/03/12 01:58:47;;;;;;;18.20;9.52;;;;;;;;;;4772718;30;20060;-82
2022/03/12 02:01:33;;;;;;;15.98;8.05;;;;;;;;;;4777169;30;20052;-83
2022/03/12 02:04:20;;;;;;;12.25;7.03;;;;;;;;;;4785760;30;20032;-81
2022/03/12 02:07:07;;;;;;;15.98;8.02;;;;;;;;;;4793951;30;20027;-81
2022/03/12 02:09:51;;;;;;;17.65;7.53;;;;;;;;;;4773070;30;20047;-82
2022/03/12 02:12:38;;;;;;;12.32;7.63;;;;;;;;;;4780445;30;20051;-82
2022/03/12 02:15:23;;;;;;;13.27;7.90;;;;;;;;;;4772204;30;20047;-82
2022/03/12 02:18:12;;;;;;;14.35;7.85;;;;;;;;;;4772082;30;20098;-81
2022/03/12 02:20:59;;;;;;;20.80;10.00;;;;;;;;;;4773786;30;20051;-83
2022/03/12 02:23:48;;;;;;;21.52;10.80;;;;;;;;;;4771185;30;20052;-82
2022/03/12 02:26:33;;;;;;;23.40;11.57;;;;;;;;;;4771077;30;20483;-82
2022/03/12 02:29:23;;;;;;;17.58;10.57;;;;;;;;;;4777155;30;20051;-80
2022/03/12 02:32:10;;;;;;;17.38;9.25;;;;;;;;;;4775838;30;20044;-83
2022/03/12 02:34:58;;;;;;;19.90;9.95;;;;;;;;;;4775763;30;20056;-82
2022/03/12 02:37:53;;;;;;;18.67;9.80;;;;;;;;;;4775855;30;20057;-82
2022/03/12 02:54:57;;;;;;;22.45;9.57;;;;;;;;;;4775998;30;20047;-80
2022/03/12 02:57:45;;;;;;;21.38;9.95;;;;;;;;;;4770478;30;20056;-82
2022/03/12 03:00:31;;;;;;;25.38;10.63;;;;;;;;;;4776353;30;20064;-82
2022/03/12 03:03:17;;;;;;;21.75;11.15;;;;;;;;;;4770972;30;20059;-82
2022/03/12 03:06:03;;;;;;;20.23;8.50;;;;;;;;;;4770754;30;20048;-83
2022/03/12 03:08:48;;;;;;;19.05;8.45;;;;;;;;;;4770532;30;20055;-82
2022/03/12 03:11:35;;;;;;;14.93;7.15;;;;;;;;;;4770701;30;20055;-81
2022/03/12 03:14:23;;;;;;;14.85;7.72;;;;;;;;;;4770545;30;20055;-82
2022/03/12 03:17:12;;;;;;;11.82;7.00;;;;;;;;;;4770448;30;20051;-83
2022/03/12 03:19:57;;;;;;;17.10;8.88;;;;;;;;;;4731253;30;1194617;-81
2022/03/12 03:22:42;;;;;;;15.48;7.10;;;;;;;;;;4771241;30;20478;-81
2022/03/12 03:25:29;;;;;;;12.48;6.60;;;;;;;;;;4771114;30;20056;-80
2022/03/12 03:28:15;;;;;;;13.10;6.95;;;;;;;;;;4770100;30;20060;-82
2022/03/12 03:31:04;;;;;;;11.15;5.93;;;;;;;;;;4777529;30;20063;-83
2022/03/12 03:33:50;;;;;;;13.90;6.18;;;;;;;;;;4771110;30;20446;-81
2022/03/12 03:36:37;;;;;;;13.38;6.57;;;;;;;;;;4770891;30;20039;-82
2022/03/12 03:39:22;;;;;;;12.30;6.38;;;;;;;;;;4771307;30;20060;-81
2022/03/12 03:42:08;;;;;;;15.23;6.90;;;;;;;;;;4775773;30;20406;-81
2022/03/12 03:44:57;;;;;;;15.02;7.03;;;;;;;;;;4770738;30;20043;-82
2022/03/12 03:47:43;;;;;;;12.43;7.00;;;;;;;;;;4771952;30;20411;-80
2022/03/12 03:50:28;;;;;;;13.52;7.20;;;;;;;;;;4773266;30;20052;-80
2022/03/12 03:53:17;;;;;;;16.08;7.53;;;;;;;;;;4772106;30;20048;-83
2022/03/12 03:56:04;;;;;;;17.00;7.43;;;;;;;;;;4770546;30;20052;-82
2022/03/12 03:58:49;;;;;;;13.45;7.30;;;;;;;;;;4770441;30;20051;-81
2022/03/12 04:01:41;;;;;;;18.98;7.97;;;;;;;;;;4770885;30;20051;-81
2022/03/12 04:04:29;;;;;;;17.58;7.93;;;;;;;;;;4771207;30;20495;-81
2022/03/12 04:07:14;;;;;;;17.50;7.93;;;;;;;;;;4770870;30;20051;-80
2022/03/12 04:09:59;;;;;;;15.00;6.85;;;;;;;;;;4771851;30;20052;-82
2022/03/12 04:12:45;;;;;;;19.77;7.18;;;;;;;;;;4769525;30;20048;-81
2022/03/12 04:15:31;;;;;;;14.52;7.43;;;;;;;;;;4770899;30;20411;-82
2022/03/12 04:18:18;;;;;;;15.23;7.28;;;;;;;;;;4771107;30;20051;-82
2022/03/12 04:21:06;;;;;;;13.27;7.35;;;;;;;;;;4773245;30;20056;-81
2022/03/12 04:23:52;;;;;;;29.00;13.23;;;;;;;;;;4782336;30;20040;-81
2022/03/12 04:26:37;;;;;;;38.35;14.32;;;;;;;;;;4785683;30;20048;-81
2022/03/12 04:29:23;;;;;;;25.23;11.68;;;;;;;;;;4771281;30;20047;-81
2022/03/12 04:32:10;;;;;;;19.95;8.43;;;;;;;;;;4770876;30;20048;-81
2022/03/12 04:34:56;;;;;;;14.85;7.18;;;;;;;;;;4773592;30;20060;-82
2022/03/12 04:37:41;;;;;;;16.02;7.70;;;;;;;;;;4774024;30;20391;-81
2022/03/12 04:40:27;;;;;;;21.35;9.43;;;;;;;;;;4770540;30;20056;-81
2022/03/12 04:43:13;;;;;;;15.95;9.02;;;;;;;;;;4770830;30;20052;-82
2022/03/12 04:46:00;;;;;;;23.98;12.32;;;;;;;;;;4770152;30;20499;-82
2022/03/12 04:48:45;;;;;;;20.10;11.55;;;;;;;;;;4770344;30;20051;-81
2022/03/12 04:51:30;;;;;;;19.67;10.73;;;;;;;;;;4770355;30;20056;-82
2022/03/12 04:54:16;;;;;;;21.75;11.70;;;;;;;;;;4770013;30;20044;-83
2022/03/12 04:57:02;;;;;;;18.73;10.73;;;;;;;;;;4775596;30;20056;-83
2022/03/12 04:59:47;;;;;;;32.03;15.43;;;;;;;;;;4779233;30;20487;-81
2022/03/12 05:02:33;;;;;;;44.47;15.70;;;;;;;;;;4773420;30;20039;-83
2022/03/12 05:05:18;;;;;;;55.38;18.23;;;;;;;;;;4773245;30;20047;-81
2022/03/12 05:08:04;;;;;;;45.42;17.50;;;;;;;;;;4773370;30;20155;-82
2022/03/12 05:10:51;;;;;;;22.50;10.18;;;;;;;;;;4773254;30;20047;-82
2022/03/12 05:13:36;;;;;;;20.27;10.48;;;;;;;;;;4772755;30;20498;-82
2022/03/12 05:16:22;;;;;;;24.20;11.68;;;;;;;;;;4773027;30;20478;-82
2022/03/12 05:19:07;;;;;;;19.80;11.13;;;;;;;;;;4772977;30;20048;-82
2022/03/12 05:21:53;;;;;;;36.53;15.43;;;;;;;;;;4774771;30;20055;-80
2022/03/12 05:24:38;;;;;;;86.53;31.60;;;;;;;;;;4775725;30;20467;-82
2022/03/12 05:27:25;;;;;;;85.88;35.50;;;;;;;;;;4772708;30;20052;-81
2022/03/12 05:30:11;;;;;;;38.50;18.50;;;;;;;;;;4772868;30;20060;-81
2022/03/12 05:32:56;;;;;;;33.83;13.88;;;;;;;;;;4772208;30;20048;-80
2022/03/12 05:35:43;;;;;;;79.45;27.83;;;;;;;;;;4772585;30;20056;-81
2022/03/12 05:38:31;;;;;;;82.47;31.98;;;;;;;;;;4772660;30;20048;-81
2022/03/12 05:41:17;;;;;;;120.68;43.90;;;;;;;;;;4772711;30;20043;-79
2022/03/12 05:44:03;;;;;;;71.70;30.15;;;;;;;;;;4772782;30;20047;-78
2022/03/12 05:46:49;;;;;;;48.92;23.60;;;;;;;;;;4772496;30;20055;-78
2022/03/12 05:49:35;;;;;;;83.85;33.53;;;;;;;;;;4772616;30;20051;-78
2022/03/12 05:52:21;;;;;;;40.67;17.60;;;;;;;;;;4772548;30;20055;-78
2022/03/12 05:55:08;;;;;;;56.28;23.45;;;;;;;;;;4772280;30;20047;-79
2022/03/12 05:57:54;;;;;;;57.05;25.15;;;;;;;;;;4772163;30;20410;-79
2022/03/12 06:00:41;;;;;;;37.70;18.85;;;;;;;;;;4777969;30;20048;-79
2022/03/12 06:03:26;;;;;;;40.83;18.33;;;;;;;;;;4772288;30;20051;-79
2022/03/12 06:06:14;;;;;;;30.67;14.95;;;;;;;;;;4772331;30;20047;-81
2022/03/12 06:08:58;;;;;;;30.60;17.38;;;;;;;;;;4777952;30;20043;-79
2022/03/12 06:24:50;;;;;;;62.28;27.50;;;;;;;;;;4773675;29;20052;-79
2022/03/12 06:27:36;;;;;;;43.13;21.55;;;;;;;;;;4777313;30;20406;-79
2022/03/12 06:30:25;;;;;;;46.13;22.50;;;;;;;;;;4776588;30;20044;-78
2022/03/12 06:33:10;;;;;;;56.08;24.58;;;;;;;;;;4776085;30;20454;-79
2022/03/12 06:49:30;;;;;;;28.58;13.20;;;;;;;;;;4781998;30;20048;-80
2022/03/12 06:52:17;;;;;;;25.27;12.30;;;;;;;;;;4751970;30;20052;-79
2022/03/12 06:55:03;;;;;;;25.27;12.65;;;;;;;;;;4777518;30;20047;-77
2022/03/12 06:58:41;;;;;;;27.05;11.05;;;;;;;;;;4776288;30;20052;-79
2022/03/12 07:01:27;;;;;;;16.20;8.35;;;;;;;;;;4776294;30;20402;-79
2022/03/12 07:04:32;;;;;;;16.45;8.27;;;;;;;;;;4776222;30;20055;-79
2022/03/12 07:07:18;;;;;;;14.10;7.65;;;;;;;;;;4775954;30;20491;-78
2022/03/12 07:10:33;;;;;;;10.77;6.15;;;;;;;;;;4775477;30;20371;-79
2022/03/12 07:13:18;;;;;;;20.15;9.43;;;;;;;;;;4775167;30;20056;-80
2022/03/12 07:16:04;;;;;;;11.35;6.45;;;;;;;;;;4776337;30;20483;-79
2022/03/12 07:18:50;;;;;;;16.25;8.45;;;;;;;;;;4775829;30;20052;-79
2022/03/12 07:21:35;;;;;;;20.80;10.50;;;;;;;;;;4775902;30;20056;-78
2022/03/12 07:52:18;;;;;;;18.38;8.63;;;;;;;;;;4671630;30;20483;-80
2022/03/12 07:56:16;;;;;;;12.30;7.00;;;;;;;;;;4681074;30;20487;-81
2022/03/12 07:59:40;;;;;;;15.52;6.82;;;;;;;;;;4687483;30;20046;-80
2022/03/12 08:08:08;;;;;;;;;;;;;;;;;;;;;
2022/03/12 08:15:39;;;;;;;19.40;8.68;;;;;;;;;;4696589;30;20046;-81
2022/03/12 08:19:25;;;;;;;16.75;8.85;;;;;;;;;;4756368;30;20052;-81
2022/03/12 08:22:27;;;;;;;22.73;10.45;;;;;;;;;;4774791;30;20048;-81
2022/03/12 08:25:16;;;;;;;15.63;8.75;;;;;;;;;;4770666;30;20051;-81
2022/03/12 08:28:02;;;;;;;22.10;9.82;;;;;;;;;;4779441;30;20051;-80
2022/03/12 08:30:50;;;;;;;25.45;11.90;;;;;;;;;;4770904;30;20056;-81
2022/03/12 08:33:56;;;;;;;;;;;;;;;;;;;;;
2022/03/12 08:36:53;;;;;;;15.52;8.02;;;;;;;;;;4773711;30;20043;-81
2022/03/12 08:39:50;;;;;;;31.77;13.77;;;;;;;;;;4773873;30;20051;-81
2022/03/12 08:42:38;;;;;;;23.40;10.90;;;;;;;;;;4773567;30;20044;-81
2022/03/12 08:45:56;;;;;;;22.95;11.18;;;;;;;;;;4773869;30;20043;-82
2022/03/12 08:49:16;;;;;;;17.85;9.00;;;;;;;;;;4771960;30;20426;-82
2022/03/12 08:52:18;;;;;;;24.63;13.00;;;;;;;;;;4773221;30;20043;-82
2022/03/12 09:03:52;;;;;;;32.55;16.70;;;;;;;;;;4757024;30;20047;-82
2022/03/12 09:06:57;;;;;;;43.35;18.00;;;;;;;;;;4778559;30;20051;-82
2022/03/12 09:09:43;;;;;;;30.25;15.20;;;;;;;;;;4762048;30;20048;-85
2022/03/12 09:12:31;;;;;;;23.83;12.57;;;;;;;;;;4776164;30;20059;-82
2022/03/12 09:15:20;;;;;;;30.20;14.52;;;;;;;;;;4778633;30;20044;-82
2022/03/12 09:18:06;;;;;;;26.42;12.82;;;;;;;;;;4776646;30;20048;-79
2022/03/12 09:20:52;;;;;;;23.88;13.15;;;;;;;;;;4773726;30;20044;-80
2022/03/12 09:23:38;;;;;;;15.07;7.30;;;;;;;;;;4774632;30;20051;-80
2022/03/12 09:26:23;;;;;;;21.65;11.93;;;;;;;;;;4772823;30;20048;-86
2022/03/12 09:29:08;;;;;;;22.27;10.57;;;;;;;;;;4772815;30;20055;-86
2022/03/12 09:31:55;;;;;;;22.50;11.00;;;;;;;;;;4772910;30;20047;-81
2022/03/12 09:34:41;;;;;;;34.15;14.13;;;;;;;;;;4772483;30;20048;-79
2022/03/12 09:37:26;;;;;;;23.27;11.35;;;;;;;;;;4771492;30;20047;-80
2022/03/12 09:40:15;;;;;;;24.60;13.20;;;;;;;;;;4771296;30;20055;-79
2022/03/12 09:43:01;;;;;;;26.73;10.52;;;;;;;;;;4771806;30;20095;-80
2022/03/12 09:45:46;;;;;;;19.77;10.20;;;;;;;;;;4772029;30;20488;-80
2022/03/12 09:48:32;;;;;;;21.20;10.05;;;;;;;;;;4772422;30;20056;-77
2022/03/12 09:51:18;;;;;;;14.52;6.13;;;;;;;;;;4772716;30;20060;-79
2022/03/12 09:54:04;;;;;;;17.90;9.55;;;;;;;;;;4772109;30;20047;-79
2022/03/12 09:56:49;;;;;;;19.73;10.70;;;;;;;;;;4772756;30;20052;-79
2022/03/12 09:59:34;;;;;;;18.35;9.07;;;;;;;;;;4771808;30;20430;-79
2022/03/12 10:02:20;;;;;;;18.60;8.55;;;;;;;;;;4775240;30;20055;-78
2022/03/12 10:05:07;;;;;;;16.30;7.43;;;;;;;;;;4765710;30;20035;-78
2022/03/12 10:07:53;;;;;;;21.45;11.52;;;;;;;;;;4772382;30;20051;-78
2022/03/12 10:10:39;;;;;;;7.57;5.10;;;;;;;;;;4772955;30;20048;-78
2022/03/12 10:13:25;;;;;;;18.80;9.85;;;;;;;;;;4772298;30;20498;-81
2022/03/12 10:16:11;;;;;;;18.77;9.65;;;;;;;;;;4773154;30;20048;-80
2022/03/12 10:18:57;;;;;;;19.92;9.18;;;;;;;;;;4771968;30;20052;-81
2022/03/12 10:21:45;;;;;;;19.50;8.85;;;;;;;;;;4775710;30;20486;-83
2022/03/12 10:24:30;;;;;;;17.58;8.68;;;;;;;;;;4773451;30;20047;-81
2022/03/12 10:27:18;;;;;;;15.32;7.40;;;;;;;;;;4773058;30;20052;-84
2022/03/12 10:30:11;;;;;;;14.38;6.13;;;;;;;;;;4777617;30;20410;-81
2022/03/12 10:32:57;;;;;;;20.90;10.10;;;;;;;;;;4772766;30;20051;-83
2022/03/12 10:35:42;;;;;;;19.17;8.23;;;;;;;;;;4770010;30;20051;-81
2022/03/12 10:38:58;;;;;;;18.02;8.88;;;;;;;;;;4771882;30;20043;-84
2022/03/12 10:41:43;;;;;;;20.77;7.67;;;;;;;;;;4780035;30;20486;-84
2022/03/12 10:44:39;;;;;;;16.58;6.70;;;;;;;;;;4780944;30;20043;-83
2022/03/12 10:47:25;;;;;;;14.25;6.30;;;;;;;;;;4770680;30;20055;-84
2022/03/12 10:50:38;;;;;;;12.57;6.40;;;;;;;;;;4771726;30;20063;-79
2022/03/12 10:53:25;;;;;;;13.65;6.80;;;;;;;;;;4784851;30;20055;-80
2022/03/12 10:56:11;;;;;;;13.07;7.53;;;;;;;;;;4770934;30;20047;-80
2022/03/12 10:58:58;;;;;;;11.43;6.15;;;;;;;;;;4771676;30;20051;-79
2022/03/12 11:01:55;;;;;;;13.93;7.60;;;;;;;;;;4777944;30;20504;-81
2022/03/12 11:04:40;;;;;;;20.15;7.82;;;;;;;;;;4771680;30;20047;-80
2022/03/12 11:07:29;;;;;;;13.45;5.28;;;;;;;;;;4771885;30;20051;-80
2022/03/12 11:10:25;;;;;;;13.50;5.03;;;;;;;;;;4776205;29;20051;-80
2022/03/12 11:13:25;;;;;;;12.88;5.88;;;;;;;;;;4793849;29;20043;-78
2022/03/12 11:16:14;;;;;;;15.45;6.97;;;;;;;;;;4780157;30;20048;-83
2022/03/12 11:19:10;;;;;;;13.55;6.90;;;;;;;;;;4772162;30;20051;-79
2022/03/12 11:21:56;;;;;;;69.20;31.95;;;;;;;;;;4772308;30;20047;-81
2022/03/12 11:24:51;;;;;;;22.55;11.02;;;;;;;;;;4771906;30;20048;-81
2022/03/12 11:27:37;;;;;;;19.85;7.88;;;;;;;;;;4777225;30;20055;-81
2022/03/12 11:30:22;;;;;;;18.50;8.85;;;;;;;;;;4771041;30;20051;-80
2022/03/12 11:33:08;;;;;;;45.28;20.27;;;;;;;;;;4771340;30;20399;-78
2022/03/12 11:36:04;;;;;;;76.55;31.90;;;;;;;;;;4771260;30;20055;-77
2022/03/12 11:38:51;;;;;;;21.52;11.32;;;;;;;;;;4771141;30;20051;-78
2022/03/12 11:41:37;;;;;;;31.95;13.50;;;;;;;;;;4774045;30;20059;-77
2022/03/12 11:44:26;;;;;;;55.88;22.60;;;;;;;;;;4776876;30;20051;-78
2022/03/12 11:47:13;;;;;;;22.50;9.75;;;;;;;;;;4771026;30;20048;-77
2022/03/12 11:50:03;;;;;;;14.40;7.00;;;;;;;;;;4772760;30;20056;-79
2022/03/12 11:52:49;;;;;;;9.32;4.82;;;;;;;;;;4771693;30;20051;-77
2022/03/12 11:55:37;;;;;;;18.23;6.65;;;;;;;;;;4771890;30;20051;-79
2022/03/12 11:58:23;;;;;;;38.20;13.77;;;;;;;;;;4770804;30;20051;-80
2022/03/12 12:01:11;;;;;;;29.38;13.43;;;;;;;;;;4762849;30;20052;-80
2022/03/12 12:03:57;;;;;;;16.85;6.53;;;;;;;;;;4770768;30;20394;-77
2022/03/12 12:06:42;;;;;;;16.08;8.38;;;;;;;;;;4771098;30;20486;-79
2022/03/12 12:09:31;;;;;;;9.98;5.55;;;;;;;;;;4776363;30;20055;-78
2022/03/12 12:12:19;;;;;;;17.10;7.95;;;;;;;;;;4782628;30;20052;-76
2022/03/12 12:15:17;;;;;;;18.05;8.10;;;;;;;;;;4783193;30;20043;-77
2022/03/12 12:18:05;;;;;;;710.20;240.02;;;;;;;;;;4779105;30;20056;-80
2022/03/12 12:20:51;;;;;;;129.23;36.05;;;;;;;;;;4773696;30;20220;-79
2022/03/12 12:23:36;;;;;;;45.55;21.50;;;;;;;;;;4774553;30;20051;-80
2022/03/12 12:26:22;;;;;;;28.80;16.58;;;;;;;;;;4774134;30;20056;-77
2022/03/12 12:29:07;;;;;;;27.75;16.45;;;;;;;;;;4774322;30;20047;-81
2022/03/12 12:32:03;;;;;;;16.17;9.65;;;;;;;;;;4774649;30;20047;-82
2022/03/12 12:35:16;;;;;;;36.55;18.52;;;;;;;;;;4773760;30;20056;-83
2022/03/12 12:38:08;;;;;;;54.67;21.70;;;;;;;;;;4779949;30;20051;-83
2022/03/12 12:40:54;;;;;;;238.48;68.00;;;;;;;;;;4773695;30;20047;-82
2022/03/12 12:43:45;;;;;;;103.93;31.75;;;;;;;;;;4773835;30;20047;-83
2022/03/12 12:46:30;;;;;;;33.90;16.95;;;;;;;;;;4773012;30;20048;-83
2022/03/12 12:49:17;;;;;;;28.60;14.45;;;;;;;;;;4772941;30;20495;-84
2022/03/12 12:52:03;;;;;;;49.15;23.30;;;;;;;;;;4774010;30;20055;-83
2022/03/12 12:55:03;;;;;;;54.50;27.80;;;;;;;;;;4773645;30;20047;-82
2022/03/12 12:57:48;;;;;;;7.72;4.47;;;;;;;;;;4773328;30;20406;-81
2022/03/12 13:00:39;;;;;;;16.13;7.22;;;;;;;;;;4776807;30;20055;-82
2022/03/12 13:03:43;;;;;;;53.80;25.08;;;;;;;;;;4779303;30;20051;-82
2022/03/12 13:06:35;;;;;;;46.50;25.77;;;;;;;;;;4773164;30;20052;-82
2022/03/12 13:09:33;;;;;;;18.48;10.07;;;;;;;;;;4772982;30;20055;-81
2022/03/12 13:12:37;;;;;;;17.58;11.27;;;;;;;;;;4773455;30;20060;-82
2022/03/12 13:15:36;;;;;;;18.60;10.53;;;;;;;;;;4772770;30;20055;-82
2022/03/12 13:18:27;;;;;;;22.15;10.38;;;;;;;;;;4772312;30;20635;-83
2022/03/12 13:21:27;;;;;;;23.52;13.23;;;;;;;;;;4773808;30;20055;-82
2022/03/12 13:24:19;;;;;;;17.77;9.02;;;;;;;;;;4773898;30;20047;-83
2022/03/12 13:27:06;;;;;;;35.83;16.00;;;;;;;;;;4775622;30;20048;-80
2022/03/12 13:30:16;;;;;;;26.48;12.73;;;;;;;;;;4790189;30;20060;-80
2022/03/12 13:33:06;;;;;;;29.85;15.35;;;;;;;;;;4774406;30;20063;-82
2022/03/12 13:35:51;;;;;;;15.60;7.00;;;;;;;;;;4772528;30;20055;-82
2022/03/12 13:38:37;;;;;;;14.00;7.38;;;;;;;;;;4772973;30;20055;-82
2022/03/12 13:41:23;;;;;;;15.13;7.35;;;;;;;;;;4772782;30;20048;-82
2022/03/12 13:44:09;;;;;;;11.02;7.05;;;;;;;;;;4774178;30;20047;-81
2022/03/12 13:46:55;;;;;;;22.73;11.40;;;;;;;;;;4773945;30;20056;-81
2022/03/12 13:49:42;;;;;;;14.00;7.78;;;;;;;;;;4772699;30;20063;-83
2022/03/12 13:52:27;;;;;;;12.43;7.40;;;;;;;;;;4773003;30;20059;-83
2022/03/12 13:55:13;;;;;;;13.45;8.30;;;;;;;;;;4771401;30;20048;-81
2022/03/12 13:58:04;;;;;;;14.75;8.20;;;;;;;;;;4766207;30;20483;-82
2022/03/12 14:00:50;;;;;;;46.92;26.27;;;;;;;;;;4772405;30;20051;-82
2022/03/12 14:03:47;;;;;;;15.52;10.07;;;;;;;;;;4771966;30;20060;-80
2022/03/12 14:06:39;;;;;;;20.38;10.70;;;;;;;;;;4771835;30;20044;-79
2022/03/12 14:09:26;;;;;;;34.60;18.65;;;;;;;;;;4776704;30;20048;-79
2022/03/12 14:12:18;;;;;;;54.95;28.35;;;;;;;;;;4772032;30;20056;-78
2022/03/12 14:15:05;;;;;;;29.58;18.05;;;;;;;;;;4771786;30;20056;-78
2022/03/12 14:17:53;;;;;;;111.88;42.30;;;;;;;;;;4771944;30;20051;-79
2022/03/12 14:20:44;;;;;;;453.88;162.63;;;;;;;;;;4771538;30;20043;-78
2022/03/12 14:23:31;;;;;;;32.78;17.00;;;;;;;;;;4771773;30;20055;-78
2022/03/12 14:26:17;;;;;;;145.50;52.70;;;;;;;;;;4771675;30;20518;-78
2022/03/12 14:29:04;;;;;;;62.55;33.63;;;;;;;;;;4771322;30;20056;-77
2022/03/12 14:31:52;;;;;;;37.17;23.80;;;;;;;;;;4771618;30;20044;-77
2022/03/12 14:34:40;;;;;;;24.17;12.10;;;;;;;;;;4771005;30;20051;-78
2022/03/12 14:37:25;;;;;;;22.00;9.30;;;;;;;;;;4771716;30;20047;-78
2022/03/12 14:40:12;;;;;;;22.75;11.23;;;;;;;;;;4771606;30;20067;-79
2022/03/12 14:43:02;;;;;;;46.45;21.55;;;;;;;;;;4771327;30;20044;-80
2022/03/12 14:45:47;;;;;;;70.95;30.95;;;;;;;;;;4771295;30;20051;-79
2022/03/12 14:48:32;;;;;;;28.63;14.07;;;;;;;;;;4771210;30;20051;-78
2022/03/12 14:51:18;;;;;;;;;;;;;;;;;;4771771;30;20051;-78
2022/03/12 14:54:09;;;;;;;49.60;26.70;;;;;;;;;;4771023;30;19917;-80
2022/03/12 14:56:57;;;;;;;31.73;16.40;;;;;;;;;;4771519;30;20483;-79
2022/03/12 14:59:43;;;;;;;25.52;13.68;;;;;;;;;;4771170;30;20059;-79
2022/03/12 15:02:30;;;;;;;53.05;27.38;;;;;;;;;;4771201;30;20093;-79
2022/03/12 15:05:16;;;;;;;66.40;31.52;;;;;;;;;;4771287;30;20039;-78
2022/03/12 15:08:03;;;;;;;49.95;25.27;;;;;;;;;;4771468;30;20056;-79
2022/03/12 15:10:49;;;;;;;51.08;25.25;;;;;;;;;;4771406;30;20051;-80
2022/03/12 15:13:43;;;;;;;30.90;13.27;;;;;;;;;;4771434;30;20052;-79
2022/03/12 15:16:29;;;;;;;117.32;44.15;;;;;;;;;;4771482;30;20044;-79
2022/03/12 15:19:15;;;;;;;29.83;16.90;;;;;;;;;;4757721;30;20051;-80
2022/03/12 15:22:01;;;;;;;14.18;7.55;;;;;;;;;;4771226;30;20044;-78
2022/03/12 15:24:57;;;;;;;13.05;7.85;;;;;;;;;;4771635;30;20055;-79
2022/03/12 15:27:54;;;;;;;28.88;13.95;;;;;;;;;;4779007;30;20051;-79
2022/03/12 15:30:44;;;;;;;19.95;11.38;;;;;;;;;;4769921;30;20052;-78
2022/03/12 15:33:32;;;;;;;26.42;13.45;;;;;;;;;;4770263;30;20487;-79
2022/03/12 15:36:22;;;;;;;25.73;13.48;;;;;;;;;;4770529;30;20052;-78
2022/03/12 15:39:08;;;;;;;18.90;10.82;;;;;;;;;;4776332;30;20051;-77
2022/03/12 15:41:55;;;;;;;21.05;11.55;;;;;;;;;;4771034;30;20051;-79
2022/03/12 15:44:41;;;;;;;37.55;21.25;;;;;;;;;;4780934;30;20043;-79
2022/03/12 15:47:27;;;;;;;25.75;13.73;;;;;;;;;;4784750;30;20059;-77
2022/03/12 15:50:18;;;;;;;33.38;19.08;;;;;;;;;;4770285;30;20422;-77
2022/03/12 15:53:07;;;;;;;37.25;19.30;;;;;;;;;;4770399;30;20055;-77
2022/03/12 15:55:53;;;;;;;97.82;45.03;;;;;;;;;;4770098;30;20044;-79
2022/03/12 15:58:40;;;;;;;119.05;58.70;;;;;;;;;;4770571;30;20044;-81
2022/03/12 16:01:26;;;;;;;97.88;47.00;;;;;;;;;;4770056;30;20402;-80
2022/03/12 16:04:12;;;;;;;70.03;32.33;;;;;;;;;;4770436;30;20047;-80
2022/03/12 16:06:59;;;;;;;72.63;32.90;;;;;;;;;;4770444;30;20432;-78
2022/03/12 16:09:48;;;;;;;375.98;155.73;;;;;;;;;;4776371;30;20052;-80
2022/03/12 16:12:38;;;;;;;302.63;124.75;;;;;;;;;;4770373;30;20379;-79
2022/03/12 16:15:23;;;;;;;114.18;48.40;;;;;;;;;;4770006;30;20048;-79
2022/03/12 16:18:11;;;;;;;44.55;23.23;;;;;;;;;;4770155;30;20511;-78
2022/03/12 16:20:57;;;;;;;56.72;31.23;;;;;;;;;;4770160;30;20048;-78
2022/03/12 16:23:42;;;;;;;46.40;25.40;;;;;;;;;;4770430;30;20047;-81
2022/03/12 16:26:28;;;;;;;47.15;22.33;;;;;;;;;;4770131;30;20043;-81
2022/03/12 16:29:15;;;;;;;161.73;71.82;;;;;;;;;;4770115;30;20048;-80
2022/03/12 16:32:00;;;;;;;139.20;58.35;;;;;;;;;;4770115;30;20048;-80
2022/03/12 16:35:15;;;;;;;129.77;54.85;;;;;;;;;;4770048;30;20402;-79
2022/03/12 16:38:02;;;;;;;122.00;51.08;;;;;;;;;;4774529;30;20047;-82
2022/03/12 16:40:49;;;;;;;160.30;68.68;;;;;;;;;;4770230;30;20051;-78
2022/03/12 16:43:34;;;;;;;136.15;60.55;;;;;;;;;;4756982;30;20055;-79
2022/03/12 16:46:21;;;;;;;99.10;42.72;;;;;;;;;;4776012;30;20399;-78
2022/03/12 16:49:10;;;;;;;70.85;33.17;;;;;;;;;;4770016;30;20056;-78
2022/03/12 16:51:55;;;;;;;65.60;30.20;;;;;;;;;;4770026;30;20048;-80
2022/03/12 16:54:41;;;;;;;96.15;47.38;;;;;;;;;;4772880;30;20055;-79
2022/03/12 16:57:26;;;;;;;119.75;60.25;;;;;;;;;;4773065;30;20499;-78
2022/03/12 17:00:15;;;;;;;88.38;42.45;;;;;;;;;;4773630;30;20418;-79
2022/03/12 17:03:05;;;;;;;85.63;38.97;;;;;;;;;;4773509;30;20487;-77
2022/03/12 17:05:51;;;;;;;116.15;46.72;;;;;;;;;;4773017;30;20054;-79
2022/03/12 17:08:37;;;;;;;76.22;39.63;;;;;;;;;;4773483;30;20044;-80
2022/03/12 17:11:23;;;;;;;95.05;41.65;;;;;;;;;;4773100;30;20522;-82
2022/03/12 17:14:10;;;;;;;103.22;46.85;;;;;;;;;;4773140;30;20403;-78
2022/03/12 17:16:55;;;;;;;109.38;44.72;;;;;;;;;;4773163;30;20048;-80
2022/03/12 17:19:42;;;;;;;84.22;38.83;;;;;;;;;;4773292;30;20051;-78
2022/03/12 17:22:27;;;;;;;66.68;30.67;;;;;;;;;;4772945;30;20056;-78
2022/03/12 17:25:14;;;;;;;58.70;24.48;;;;;;;;;;4772347;30;20483;-79
2022/03/12 17:28:01;;;;;;;55.85;28.35;;;;;;;;;;4772701;30;20047;-78
2022/03/12 17:30:52;;;;;;;67.75;28.20;;;;;;;;;;4772621;30;20044;-79
2022/03/12 17:33:37;;;;;;;100.05;46.55;;;;;;;;;;4772639;30;20051;-77
2022/03/12 17:36:22;;;;;;;75.57;31.67;;;;;;;;;;4772704;30;20051;-77
2022/03/12 17:39:12;;;;;;;155.65;44.70;;;;;;;;;;4772830;30;20051;-77
2022/03/12 17:41:59;;;;;;;66.82;30.02;;;;;;;;;;4777694;30;20055;-78
2022/03/12 17:44:46;;;;;;;76.00;32.20;;;;;;;;;;4772924;30;20047;-80
2022/03/12 17:47:32;;;;;;;77.25;32.47;;;;;;;;;;4772740;30;20406;-79
2022/03/12 17:50:22;;;;;;;49.42;22.95;;;;;;;;;;4772069;30;20047;-78
2022/03/12 17:53:10;;;;;;;59.90;26.00;;;;;;;;;;4772427;30;20399;-75
2022/03/12 17:55:56;;;;;;;62.03;26.15;;;;;;;;;;4772609;30;20487;-77
2022/03/12 17:58:55;;;;;;;84.32;32.40;;;;;;;;;;4773249;30;20060;-78
2022/03/12 18:01:41;;;;;;;79.80;34.40;;;;;;;;;;4786696;30;20043;-78
2022/03/12 18:04:31;;;;;;;81.53;34.42;;;;;;;;;;4785391;30;20051;-79
2022/03/12 18:07:16;;;;;;;105.78;42.55;;;;;;;;;;4782864;30;20047;-78
2022/03/12 18:10:07;;;;;;;107.50;41.03;;;;;;;;;;4777847;30;20372;-78
2022/03/12 18:12:53;;;;;;;75.90;34.95;;;;;;;;;;4771964;30;20055;-76
2022/03/12 18:15:38;;;;;;;66.88;29.27;;;;;;;;;;4771750;30;20039;-79
2022/03/12 18:18:23;;;;;;;65.85;29.35;;;;;;;;;;4771963;30;20059;-78
2022/03/12 18:21:10;;;;;;;69.25;33.47;;;;;;;;;;4772093;30;20048;-79
2022/03/12 18:23:57;;;;;;;59.97;28.27;;;;;;;;;;4771892;30;20051;-79
2022/03/12 18:26:42;;;;;;;49.30;23.67;;;;;;;;;;4771778;30;20052;-79
2022/03/12 18:29:28;;;;;;;46.10;23.83;;;;;;;;;;4777335;30;20390;-79
2022/03/12 18:32:20;;;;;;;46.15;22.05;;;;;;;;;;4777450;30;20486;-79
2022/03/12 18:35:06;;;;;;;37.83;17.83;;;;;;;;;;4777641;30;20403;-80
2022/03/12 18:37:57;;;;;;;36.65;16.80;;;;;;;;;;4770807;30;20040;-77
2022/03/12 18:40:43;;;;;;;38.47;19.27;;;;;;;;;;4769664;30;20055;-78
2022/03/12 18:43:29;;;;;;;62.13;25.65;;;;;;;;;;4776763;30;20048;-80
2022/03/12 18:46:15;;;;;;;120.35;44.45;;;;;;;;;;4771567;30;20047;-79
2022/03/12 18:49:02;;;;;;;89.90;35.33;;;;;;;;;;4771237;30;20052;-79
2022/03/12 18:51:48;;;;;;;104.68;40.38;;;;;;;;;;4771056;30;20055;-79
2022/03/12 18:54:35;;;;;;;135.93;43.92;;;;;;;;;;4770903;30;20047;-80
2022/03/12 18:57:21;;;;;;;99.35;33.53;;;;;;;;;;4771441;30;20384;-77
2022/03/12 19:00:08;;;;;;;95.07;36.58;;;;;;;;;;4771279;30;20043;-77
2022/03/12 19:02:53;;;;;;;114.32;41.22;;;;;;;;;;4771184;30;20047;-76
2022/03/12 19:05:45;;;;;;;41.42;19.77;;;;;;;;;;4777196;30;20388;-77
2022/03/12 19:08:32;;;;;;;32.25;16.55;;;;;;;;;;4771048;30;20043;-77
2022/03/12 19:11:18;;;;;;;47.55;20.25;;;;;;;;;;4771074;30;20047;-78
2022/03/12 19:14:07;;;;;;;47.30;19.30;;;;;;;;;;4771160;30;20487;-77
2022/03/12 19:16:53;;;;;;;51.75;20.05;;;;;;;;;;4770326;30;20407;-78